Spear Flower — HOVK — position and weather

sailwx.info

Track history (hours):
 
Tides and Currents Weather Stations Pressure Air Temp Water Temp Dewpoint Dewpoint Depression Visibility Wind Speed Wind Dir Waves Ship Positions

Spear Flower

Last reported at 2018-Jun-18 10:18 UTC. Time now 2018-Jun-21 23:45 UTC.
Position N 40°01' E 026°12'.

Length 190 m; draft 6 m.

Type: Cargo ship. MMSI: 374309000.

Date/timePositionNaut miles runAvg speedWind from/ knotsBaromVisibWave heightAir tempDewpointWater temp
2018-Jun-18 10:18N 40°01' E 026°12'410.6
2018-Jun-18 09:53N 40°00' E 026°06'511.0
2018-Jun-18 09:28N 39°59' E 026°01'56810.9
2018-Jun-16 05:33N 36°14' E 014°58'114.0
2018-Jun-16 05:27N 36°14' E 014°56'59912.8
2018-Jun-14 06:48N 36°58' E 002°32'1614.3
2018-Jun-14 05:41N 36°54' E 002°12'315.3
2018-Jun-14 05:30N 36°53' E 002°09'1215.0
2018-Jun-14 04:40N 36°50' E 001°54'214.6
2018-Jun-14 04:30N 36°49' E 001°51'1114.7
2018-Jun-14 03:46N 36°47' E 001°38'414.7
2018-Jun-14 03:30N 36°46' E 001°33'714.9
2018-Jun-14 03:00N 36°45' E 001°24'715.0
2018-Jun-14 02:30N 36°43' E 001°15'815.0
2018-Jun-14 02:00N 36°41' E 001°06'714.8
2018-Jun-14 01:30N 36°40' E 000°56'714.4
2018-Jun-14 01:00N 36°38' E 000°48'714.2
2018-Jun-14 00:30N 36°35' E 000°40'714.4
2018-Jun-14 00:00N 36°30' E 000°33'714.6
2018-Jun-13 23:30N 36°27' E 000°25'714.4
2018-Jun-13 22:59N 36°23' E 000°17'714.6
2018-Jun-13 22:30N 36°19' E 000°10'1314.6
2018-Jun-13 21:35N 36°12' W 000°04'114.8
2018-Jun-13 21:30N 36°11' W 000°06'714.9
2018-Jun-13 21:00N 36°07' W 000°13'714.7
2018-Jun-13 20:30N 36°04' W 000°21'714.1
2018-Jun-13 20:00N 35°59' W 000°27'714.6
2018-Jun-13 19:30N 35°53' W 000°33'713.5
2018-Jun-13 19:00N 35°47' W 000°36'4 8.6
2018-Jun-13 18:30N 35°43' W 000°38'0 0.2
2018-Jun-13 18:00N 35°43' W 000°38'0 0.0
2018-Jun-13 17:30N 35°43' W 000°38'0 0.0
2018-Jun-13 16:54N 35°43' W 000°38'0 0.0
2018-Jun-13 16:24N 35°43' W 000°38'0 0.0
2018-Jun-13 15:30N 35°43' W 000°38'0 0.0
2018-Jun-12 18:24N 35°43' W 000°38'  
Track history (hours):
 
Tides and Currents Weather Stations Pressure Air Temp Water Temp Dewpoint Dewpoint Depression Visibility Wind Speed Wind Dir Waves Ship Positions

Spear Flower

Last reported at 2018-Jun-18 10:18 UTC. Time now 2018-Jun-21 23:45 UTC.
Position N 40°01' E 026°12'.

Length 190 m; draft 6 m.

Type: Cargo ship. MMSI: 374309000.

Date/timePositionNaut miles runAvg speedWind from/ knotsBaromVisibWave heightAir tempDewpointWater temp
2018-Jun-18 10:18N 40°01' E 026°12'410.6
2018-Jun-18 09:53N 40°00' E 026°06'511.0
2018-Jun-18 09:28N 39°59' E 026°01'56810.9
2018-Jun-16 05:33N 36°14' E 014°58'114.0
2018-Jun-16 05:27N 36°14' E 014°56'59912.8
2018-Jun-14 06:48N 36°58' E 002°32'1614.3
2018-Jun-14 05:41N 36°54' E 002°12'315.3
2018-Jun-14 05:30N 36°53' E 002°09'1215.0
2018-Jun-14 04:40N 36°50' E 001°54'214.6
2018-Jun-14 04:30N 36°49' E 001°51'1114.7
2018-Jun-14 03:46N 36°47' E 001°38'414.7
2018-Jun-14 03:30N 36°46' E 001°33'714.9
2018-Jun-14 03:00N 36°45' E 001°24'715.0
2018-Jun-14 02:30N 36°43' E 001°15'815.0
2018-Jun-14 02:00N 36°41' E 001°06'714.8
2018-Jun-14 01:30N 36°40' E 000°56'714.4
2018-Jun-14 01:00N 36°38' E 000°48'714.2
2018-Jun-14 00:30N 36°35' E 000°40'714.4
2018-Jun-14 00:00N 36°30' E 000°33'714.6
2018-Jun-13 23:30N 36°27' E 000°25'714.4
2018-Jun-13 22:59N 36°23' E 000°17'714.6
2018-Jun-13 22:30N 36°19' E 000°10'1314.6
2018-Jun-13 21:35N 36°12' W 000°04'114.8
2018-Jun-13 21:30N 36°11' W 000°06'714.9
2018-Jun-13 21:00N 36°07' W 000°13'714.7
2018-Jun-13 20:30N 36°04' W 000°21'714.1
2018-Jun-13 20:00N 35°59' W 000°27'714.6
2018-Jun-13 19:30N 35°53' W 000°33'713.5
2018-Jun-13 19:00N 35°47' W 000°36'4 8.6
2018-Jun-13 18:30N 35°43' W 000°38'0 0.2
2018-Jun-13 18:00N 35°43' W 000°38'0 0.0
2018-Jun-13 17:30N 35°43' W 000°38'0 0.0
2018-Jun-13 16:54N 35°43' W 000°38'0 0.0
2018-Jun-13 16:24N 35°43' W 000°38'0 0.0
2018-Jun-13 15:30N 35°43' W 000°38'0 0.0
2018-Jun-12 18:24N 35°43' W 000°38'  

Dump ship's entire track history